• Join FlightAware (Why Join?)
  • Login
  • US Flag 
04:41AM EDT


 

Airport Tracker/Info


-or-


 

Live Flight TrackerFlight Track Log ✈ SWA1044 ✈ 02-Nov-2013 ✈ KSJC - KDEN

Flight Track Log - Related Links

Times and Time Zones

All times are in EDT time to prevent confusion due to time zone crossing. See the SWA1044 flight status page for this flight to view local times or setup timezone preferences in your user account.

Time Position Orientation Groundspeed Altitude Reporting Facility
EDT Latitude Longitude Course Direction KTS MPH feet Rate Location/Type
09:37AM 37.4031 -121.9686 69° East 207 238 1,600  Level Oakland Center
09:38AM 37.4572 -121.9544 12° North 255 293 4,500 1,680 Climbing Oakland Center
09:39AM 37.4228 -121.8806 120° Southeast 259 298 5,000 1,380 Climbing Oakland Center
09:40AM 37.3750 -121.8172 133° Southeast 255 293 7,300 2,460 Climbing Oakland Center
09:41AM 37.3158 -121.7672 146° Southeast 263 303 10,000 2,280 Climbing Oakland Center
09:42AM 37.5228 -121.2073 69° East  Level Estimated
09:42AM 37.3114 -121.8414 266° West 282 325 11,900  Level Oakland Center
09:43AM 37.3892 -121.8111 17° North 320 368 13,200 1,560 Climbing Oakland Center
09:44AM 37.4675 -121.7214 42° Northeast 373 429 15,100 1,980 Climbing Oakland Center
09:45AM 37.5486 -121.6264 43° Northeast 394 453 17,300 2,040 Climbing Oakland Center
09:46AM 37.6319 -121.5283 43° Northeast 409 471 19,300 1,740 Climbing Oakland Center
09:47AM 37.7261 -121.4197 42° Northeast 423 487 20,900 1,620 Climbing Oakland Center
09:48AM 37.8172 -121.3114 43° Northeast 440 506 22,600 1,680 Climbing Oakland Center
09:49AM 37.9075 -121.2042 43° Northeast 447 514 24,400 1,680 Climbing Oakland Center
09:50AM 37.9992 -121.0958 43° Northeast 450 518 26,000 1,320 Climbing Oakland Center
09:51AM 38.0806 -120.9722 50° Northeast 472 543 27,100 1,080 Climbing Oakland Center
09:52AM 38.1161 -120.8144 74° East 475 547 28,300 1,320 Climbing Oakland Center
09:53AM 38.1433 -120.6533 78° East 472 543 29,800 1,560 Climbing Oakland Center
09:54AM 38.1733 -120.4947 76° East 468 539 31,500 1,380 Climbing Oakland Center
09:55AM 38.2000 -120.3414 77° East 455 524 32,700 900 Climbing Oakland Center
09:56AM 38.2269 -120.1878 77° East 448 516 33,400 720 Climbing Oakland Center
09:57AM 38.2594 -119.9978 78° East 460 529 34,200 660 Climbing Oakland Center
09:58AM 38.2881 -119.8367 77° East 465 535 34,800 360 Climbing Oakland Center
09:59AM 38.3158 -119.6769 77° East 464 534 35,000 60 Climbing Oakland Center
10:00AM 38.3417 -119.5189 78° East 458 527 35,000  Level Oakland Center
10:01AM 38.3678 -119.3653 78° East 458 527 35,000  Level Oakland Center
10:02AM 38.3944 -119.2108 78° East 451 519 35,000  Level Oakland Center
10:03AM 38.4194 -119.0564 78° East 448 516 35,000  Level Oakland Center
10:04AM 38.4442 -118.9031 78° East 445 512 35,000  Level Oakland Center
10:05AM 38.4694 -118.7489 78° East 445 512 35,000  Level Oakland Center
10:06AM 38.4939 -118.5958 78° East 443 510 35,000  Level Oakland Center
10:07AM 38.5183 -118.4428 78° East 443 510 35,000  Level Oakland Center
10:08AM 38.5419 -118.2892 79° East 444 511 35,000  Level Oakland Center
10:09AM 38.5667 -118.1344 78° East 445 512 35,000  Level Oakland Center
10:10AM 38.5936 -117.9547 79° East 450 518 35,000  Level Oakland Center
10:11AM 38.6192 -117.7964 78° East 452 520 35,000  Level Oakland Center
10:12AM 38.6425 -117.6386 79° East 450 518 35,000  Level Oakland Center
10:13AM 38.6667 -117.4828 79° East 447 514 35,000  Level Oakland Center
10:14AM 38.6894 -117.3253 79° East 448 516 35,000  Level Oakland Center
10:15AM 38.7128 -117.1672 79° East 449 517 35,000  Level Oakland Center
10:16AM 38.7308 -117.0406 80° East 448 516 35,000  Level Salt Lake Center
10:17AM 38.7539 -116.8853 79° East 444 511 35,000  Level Salt Lake Center
10:18AM 38.7772 -116.7264 79° East 449 517 35,000  Level Salt Lake Center
10:19AM 38.7989 -116.5656 80° East 455 524 35,000  Level Salt Lake Center
10:20AM 38.8261 -116.3717 80° East 459 528 35,000  Level Oakland Center
10:21AM 38.8497 -116.2103 79° East 459 528 35,000  Level Oakland Center
10:22AM 38.8669 -116.0800 80° East 461 531 35,000  Level Salt Lake Center
10:23AM 38.8944 -115.8847 80° East 463 533 35,000  Level Salt Lake Center
10:24AM 38.9153 -115.7214 81° East 463 533 35,000  Level Salt Lake Center
10:25AM 38.9369 -115.5567 80° East 467 537 35,000  Level Salt Lake Center
10:26AM 38.9592 -115.3911 80° East 469 540 35,000  Level Salt Lake Center
10:27AM 38.9808 -115.2389 80° East 479 551 35,000  Level Salt Lake Center
10:28AM 39.0067 -115.0397 80° East 475 547 35,000  Level Salt Lake Center
10:29AM 39.0275 -114.8728 81° East 474 545 35,000  Level Salt Lake Center
10:30AM 39.0486 -114.7036 81° East 478 550 35,000  Level Salt Lake Center
10:31AM 39.0703 -114.5339 81° East 480 552 35,000  Level Salt Lake Center
10:32AM 39.0911 -114.3656 81° East 478 550 35,000  Level Salt Lake Center
10:33AM 39.1119 -114.1969 81° East 478 550 35,000  Level Salt Lake Center
10:34AM 39.1322 -114.0300 81° East 474 545 35,000  Level Salt Lake Center
10:35AM 39.1517 -113.8606 82° East 476 548 35,000  Level Salt Lake Center
10:36AM 39.1717 -113.6914 81° East 477 549 35,000  Level Salt Lake Center
10:37AM 39.1908 -113.5236 82° East 475 547 35,000  Level Salt Lake Center
10:38AM 39.2094 -113.3550 82° East 474 545 35,000  Level Salt Lake Center
10:39AM 39.2325 -113.1517 82° East 477 549 35,000  Level Salt Lake Center
10:40AM 39.2517 -112.9819 82° East 477 549 35,000  Level Salt Lake Center
10:41AM 39.2692 -112.8119 82° East 479 551 35,000  Level Salt Lake Center
10:42AM 39.2881 -112.6372 82° East 477 549 35,000  Level Salt Lake Center
10:43AM 39.3081 -112.4681 81° East 478 550 35,000  Level Salt Lake Center
10:44AM 39.3411 -112.3033 75° East 479 551 35,000  Level Salt Lake Center
10:45AM 39.3717 -112.1358 77° East 481 554 35,000  Level Salt Lake Center
10:46AM 39.4028 -111.9681 76° East 482 555 35,000  Level Salt Lake Center
10:47AM 39.4328 -111.7997 77° East 484 557 35,000  Level Salt Lake Center
10:48AM 39.4700 -111.5983 76° East 484 557 35,000  Level Salt Lake Center
10:49AM 39.5017 -111.4300 76° East 484 557 35,000  Level Salt Lake Center
10:51AM 39.5264 -111.2758 78° East 485 558 35,000  Level Salt Lake Center
10:52AM 39.5614 -111.0869 76° East 482 555 35,000  Level Salt Lake Center
10:53AM 39.5889 -110.9236 78° East 483 556 35,000  Level Salt Lake Center
10:54AM 39.6231 -110.7333 77° East 487 560 35,000  Level Salt Lake Center
10:55AM 39.6508 -110.5692 78° East 488 562 35,000  Level Salt Lake Center
10:56AM 39.6786 -110.4042 78° East 489 563 35,000  Level Salt Lake Center
10:57AM 39.7097 -110.2103 78° East 491 565 35,000  Level Salt Lake Center
10:58AM 39.7383 -110.0447 77° East 492 566 35,000  Level Salt Lake Center
10:59AM 39.7697 -109.8500 78° East 492 566 35,000  Level Salt Lake Center
11:00AM 39.7964 -109.6836 78° East 492 566 35,000  Level Salt Lake Center
11:00AM 39.8150 -109.5706 78° East 493 567 35,000  Level Denver Center
11:01AM 39.8464 -109.3744 78° East 494 568 35,000  Level Denver Center
11:02AM 39.8731 -109.2056 78° East 496 571 35,000  Level Denver Center
11:04AM 39.9050 -109.0086 78° East 495 570 35,000  Level Denver Center
11:05AM 39.9314 -108.8367 79° East 499 574 35,000  Level Denver Center
11:06AM 39.9575 -108.6650 79° East 499 574 35,000  Level Denver Center
11:07AM 39.9867 -108.4650 79° East 499 574 35,000  Level Denver Center
11:08AM 40.0131 -108.2947 79° East 499 574 35,000  Level Denver Center
11:09AM 40.0425 -108.0956 79° East 498 573 35,000  Level Denver Center
11:10AM 40.0683 -107.9250 79° East 498 573 35,000  Level Denver Center
11:11AM 40.1000 -107.7261 78° East 499 574 35,000  Level Denver Center
11:12AM 40.1253 -107.5553 79° East 500 575 35,000  Level Denver Center
11:13AM 40.1517 -107.3839 79° East 502 578 35,000  Level Denver Center
11:14AM 40.1825 -107.1828 79° East 504 580 35,000  Level Denver Center
11:15AM 40.2078 -107.0106 79° East 504 580 35,000  Level Denver Center
11:16AM 40.2361 -106.8181 79° East 505 581 35,000  Level Denver Center
11:17AM 40.2636 -106.6358 79° East 507 583 35,000 -480 Level Denver Center
11:18AM 40.2928 -106.4314 79° East 510 587 34,100 -1,500 Descending Denver Center
11:19AM 40.3186 -106.2528 79° East 519 597 32,000 -2,160 Descending Denver Center
11:20AM 40.3428 -106.0747 80° East 486 559 29,700 -2,820 Descending Denver Center
11:21AM 40.3669 -105.9019 80° East 482 555 26,200 -3,120 Descending Denver Center
11:22AM 40.3883 -105.7333 80° East 472 543 23,300 -3,360 Descending Denver Center
11:23AM 40.3733 -105.5389 96° East 462 532 19,300 -3,120 Descending Denver Center
11:24AM 40.3478 -105.3822 102° East 458 527 16,900 -1,800 Descending Denver Center
11:25AM 40.3283 -105.2303 99° East 394 453 15,600 -1,380 Descending Denver Center
11:26AM 40.3108 -105.1050 100° East 355 409 14,100 -1,320 Descending Denver Center
11:27AM 40.2956 -104.9928 100° East 321 369 12,900 -1,020 Descending Denver Center
11:28AM 40.2639 -104.8839 111° Southeast 304 350 12,100 -1,200 Descending Denver Center
11:29AM 40.1911 -104.8278 149° Southeast 309 356 10,500 -1,620 Descending Denver Center
11:30AM 40.1172 -104.7803 154° Southeast 277 319 8,800 -1,260 Descending Denver Center
11:31AM 40.0531 -104.7375 153° Southeast 261 300 8,000 -960 Descending Denver Center
11:32AM 39.9850 -104.6956 155° Southeast 251 289 6,900 -960 Descending Denver Center
11:33AM 39.9336 -104.6961 180° South 190 219 6,100 -780 Descending Denver Center
11:35AM 39.8944 -104.6961 180° South 146 168 5,300 -780 Descending Denver Center
11:36AM 39.8617 -104.6732 180° South  Level Estimated
11:43AM 39.8617 -104.6732 180° South  Level Estimated
11:44AM 39.8617 -104.6732 180° South  Level Estimated
11:45AM 39.8617 -104.6732 180° South  Level Estimated